sensor_id;sensor_type;location;lat;lon;timestamp;temperature;humidity
22469;DHT22;11401;50.792;4.352;2023-03-11T00:00:21;11.20;62.90
22469;DHT22;11401;50.792;4.352;2023-03-11T00:02:50;11.10;62.90
22469;DHT22;11401;50.792;4.352;2023-03-11T00:05:23;11.10;62.90
22469;DHT22;11401;50.792;4.352;2023-03-11T00:07:52;11.10;62.80
22469;DHT22;11401;50.792;4.352;2023-03-11T00:10:22;11.10;62.60
22469;DHT22;11401;50.792;4.352;2023-03-11T00:12:50;11.10;63.20
22469;DHT22;11401;50.792;4.352;2023-03-11T00:15:18;11.10;62.90
22469;DHT22;11401;50.792;4.352;2023-03-11T00:17:47;11.00;63.20
22469;DHT22;11401;50.792;4.352;2023-03-11T00:20:17;11.00;63.50
22469;DHT22;11401;50.792;4.352;2023-03-11T00:22:45;11.00;63.40
22469;DHT22;11401;50.792;4.352;2023-03-11T00:25:13;11.00;63.20
22469;DHT22;11401;50.792;4.352;2023-03-11T00:27:40;11.00;63.70
22469;DHT22;11401;50.792;4.352;2023-03-11T00:30:08;10.90;63.40
22469;DHT22;11401;50.792;4.352;2023-03-11T00:32:36;10.90;63.70
22469;DHT22;11401;50.792;4.352;2023-03-11T00:35:03;10.90;63.80
22469;DHT22;11401;50.792;4.352;2023-03-11T00:37:31;10.90;63.50
22469;DHT22;11401;50.792;4.352;2023-03-11T00:39:59;10.90;63.70
22469;DHT22;11401;50.792;4.352;2023-03-11T00:42:26;10.80;63.50
22469;DHT22;11401;50.792;4.352;2023-03-11T00:44:53;10.80;63.70
22469;DHT22;11401;50.792;4.352;2023-03-11T00:47:20;10.80;63.90
22469;DHT22;11401;50.792;4.352;2023-03-11T00:49:47;10.70;64.10
22469;DHT22;11401;50.792;4.352;2023-03-11T00:52:14;10.70;63.60
22469;DHT22;11401;50.792;4.352;2023-03-11T00:54:41;10.70;63.90
22469;DHT22;11401;50.792;4.352;2023-03-11T00:57:08;10.70;64.00
22469;DHT22;11401;50.792;4.352;2023-03-11T00:59:35;10.70;64.20
22469;DHT22;11401;50.792;4.352;2023-03-11T01:02:02;10.70;63.80
22469;DHT22;11401;50.792;4.352;2023-03-11T01:04:29;10.70;63.80
22469;DHT22;11401;50.792;4.352;2023-03-11T01:06:56;10.70;63.50
22469;DHT22;11401;50.792;4.352;2023-03-11T01:09:23;10.60;63.90
22469;DHT22;11401;50.792;4.352;2023-03-11T01:11:50;10.60;63.20
22469;DHT22;11401;50.792;4.352;2023-03-11T01:14:18;10.60;64.10
22469;DHT22;11401;50.792;4.352;2023-03-11T01:16:44;10.60;64.10
22469;DHT22;11401;50.792;4.352;2023-03-11T01:19:12;10.60;64.30
22469;DHT22;11401;50.792;4.352;2023-03-11T01:21:39;10.60;64.10
22469;DHT22;11401;50.792;4.352;2023-03-11T01:24:07;10.60;64.10
22469;DHT22;11401;50.792;4.352;2023-03-11T01:26:34;10.60;64.30
22469;DHT22;11401;50.792;4.352;2023-03-11T01:29:01;10.60;63.80
22469;DHT22;11401;50.792;4.352;2023-03-11T01:31:29;10.60;63.80
22469;DHT22;11401;50.792;4.352;2023-03-11T01:33:56;10.60;64.10
22469;DHT22;11401;50.792;4.352;2023-03-11T01:36:25;10.60;64.00
22469;DHT22;11401;50.792;4.352;2023-03-11T01:38:52;10.50;63.80
22469;DHT22;11401;50.792;4.352;2023-03-11T01:41:19;10.60;64.10
22469;DHT22;11401;50.792;4.352;2023-03-11T01:43:50;10.60;64.10
22469;DHT22;11401;50.792;4.352;2023-03-11T01:46:29;10.60;64.40
22469;DHT22;11401;50.792;4.352;2023-03-11T01:48:59;10.60;63.90
22469;DHT22;11401;50.792;4.352;2023-03-11T01:51:51;10.50;63.90
22469;DHT22;11401;50.792;4.352;2023-03-11T01:54:26;10.50;64.30
22469;DHT22;11401;50.792;4.352;2023-03-11T01:56:55;10.50;63.80
22469;DHT22;11401;50.792;4.352;2023-03-11T01:59:26;10.50;63.90
22469;DHT22;11401;50.792;4.352;2023-03-11T02:04:28;10.60;63.90
22469;DHT22;11401;50.792;4.352;2023-03-11T02:06:56;10.50;63.80
22469;DHT22;11401;50.792;4.352;2023-03-11T02:09:23;10.60;65.10
22469;DHT22;11401;50.792;4.352;2023-03-11T02:11:53;10.60;64.00
22469;DHT22;11401;50.792;4.352;2023-03-11T02:14:20;10.60;64.20
22469;DHT22;11401;50.792;4.352;2023-03-11T02:16:51;10.50;63.50
22469;DHT22;11401;50.792;4.352;2023-03-11T02:21:56;10.50;64.00
22469;DHT22;11401;50.792;4.352;2023-03-11T02:24:34;10.50;63.80
22469;DHT22;11401;50.792;4.352;2023-03-11T02:27:09;10.50;64.30
22469;DHT22;11401;50.792;4.352;2023-03-11T02:29:38;10.50;64.30
22469;DHT22;11401;50.792;4.352;2023-03-11T02:32:09;10.50;64.10
22469;DHT22;11401;50.792;4.352;2023-03-11T02:34:41;10.50;64.10
22469;DHT22;11401;50.792;4.352;2023-03-11T02:37:11;10.50;64.10
22469;DHT22;11401;50.792;4.352;2023-03-11T02:39:47;10.50;63.90
22469;DHT22;11401;50.792;4.352;2023-03-11T02:42:30;10.60;64.30
22469;DHT22;11401;50.792;4.352;2023-03-11T02:45:03;10.60;64.00
22469;DHT22;11401;50.792;4.352;2023-03-11T02:47:32;10.60;64.00
22469;DHT22;11401;50.792;4.352;2023-03-11T02:50:00;10.60;63.70
22469;DHT22;11401;50.792;4.352;2023-03-11T02:52:31;10.60;63.70
22469;DHT22;11401;50.792;4.352;2023-03-11T02:54:59;10.60;63.40
22469;DHT22;11401;50.792;4.352;2023-03-11T02:57:26;10.60;63.70
22469;DHT22;11401;50.792;4.352;2023-03-11T02:59:53;10.60;63.50
22469;DHT22;11401;50.792;4.352;2023-03-11T03:02:20;10.60;63.90
22469;DHT22;11401;50.792;4.352;2023-03-11T03:04:47;10.50;63.60
22469;DHT22;11401;50.792;4.352;2023-03-11T03:07:15;10.50;63.80
22469;DHT22;11401;50.792;4.352;2023-03-11T03:09:42;10.50;63.60
22469;DHT22;11401;50.792;4.352;2023-03-11T03:12:09;10.40;63.70
22469;DHT22;11401;50.792;4.352;2023-03-11T03:14:36;10.40;63.70
22469;DHT22;11401;50.792;4.352;2023-03-11T03:17:03;10.40;63.70
22469;DHT22;11401;50.792;4.352;2023-03-11T03:19:31;10.40;63.90
22469;DHT22;11401;50.792;4.352;2023-03-11T03:21:58;10.40;64.10
22469;DHT22;11401;50.792;4.352;2023-03-11T03:24:25;10.40;64.40
22469;DHT22;11401;50.792;4.352;2023-03-11T03:26:52;10.40;64.10
22469;DHT22;11401;50.792;4.352;2023-03-11T03:29:19;10.40;64.20
22469;DHT22;11401;50.792;4.352;2023-03-11T03:31:48;10.40;63.80
22469;DHT22;11401;50.792;4.352;2023-03-11T03:34:15;10.40;63.80
22469;DHT22;11401;50.792;4.352;2023-03-11T03:36:42;10.40;64.20
22469;DHT22;11401;50.792;4.352;2023-03-11T03:39:09;10.40;64.10
22469;DHT22;11401;50.792;4.352;2023-03-11T03:41:36;10.40;64.10
22469;DHT22;11401;50.792;4.352;2023-03-11T03:44:04;10.40;64.00
22469;DHT22;11401;50.792;4.352;2023-03-11T03:46:33;10.50;64.10
22469;DHT22;11401;50.792;4.352;2023-03-11T03:49:02;10.50;64.80
22469;DHT22;11401;50.792;4.352;2023-03-11T03:51:30;10.50;63.90
22469;DHT22;11401;50.792;4.352;2023-03-11T03:54:23;10.50;64.00
22469;DHT22;11401;50.792;4.352;2023-03-11T03:56:50;10.50;63.80
22469;DHT22;11401;50.792;4.352;2023-03-11T03:59:17;10.50;64.00
22469;DHT22;11401;50.792;4.352;2023-03-11T04:01:50;10.50;63.80
22469;DHT22;11401;50.792;4.352;2023-03-11T04:04:18;10.50;63.70
22469;DHT22;11401;50.792;4.352;2023-03-11T04:06:46;10.50;63.90
22469;DHT22;11401;50.792;4.352;2023-03-11T04:09:14;10.50;63.50
22469;DHT22;11401;50.792;4.352;2023-03-11T04:11:42;10.50;63.70
22469;DHT22;11401;50.792;4.352;2023-03-11T04:14:13;10.50;63.80
22469;DHT22;11401;50.792;4.352;2023-03-11T04:16:48;10.40;63.80
22469;DHT22;11401;50.792;4.352;2023-03-11T04:19:15;10.50;64.00
22469;DHT22;11401;50.792;4.352;2023-03-11T04:21:42;10.60;63.90
22469;DHT22;11401;50.792;4.352;2023-03-11T04:24:10;10.60;63.40
22469;DHT22;11401;50.792;4.352;2023-03-11T04:26:38;10.60;63.10
22469;DHT22;11401;50.792;4.352;2023-03-11T04:29:10;10.60;63.00
22469;DHT22;11401;50.792;4.352;2023-03-11T04:31:42;10.60;62.80
22469;DHT22;11401;50.792;4.352;2023-03-11T04:34:09;10.60;62.70
22469;DHT22;11401;50.792;4.352;2023-03-11T04:36:37;10.60;62.60
22469;DHT22;11401;50.792;4.352;2023-03-11T04:39:05;10.60;62.80
22469;DHT22;11401;50.792;4.352;2023-03-11T04:41:38;10.50;62.40
22469;DHT22;11401;50.792;4.352;2023-03-11T04:44:06;10.50;62.70
22469;DHT22;11401;50.792;4.352;2023-03-11T04:46:33;10.50;62.50
22469;DHT22;11401;50.792;4.352;2023-03-11T04:49:04;10.50;62.90
22469;DHT22;11401;50.792;4.352;2023-03-11T04:51:31;10.50;62.40
22469;DHT22;11401;50.792;4.352;2023-03-11T04:53:58;10.50;62.50
22469;DHT22;11401;50.792;4.352;2023-03-11T04:56:27;10.50;62.40
22469;DHT22;11401;50.792;4.352;2023-03-11T04:58:54;10.50;62.60
22469;DHT22;11401;50.792;4.352;2023-03-11T05:01:23;10.50;62.50
22469;DHT22;11401;50.792;4.352;2023-03-11T05:03:50;10.50;62.40
22469;DHT22;11401;50.792;4.352;2023-03-11T05:06:17;10.50;62.40
22469;DHT22;11401;50.792;4.352;2023-03-11T05:08:45;10.50;62.70
22469;DHT22;11401;50.792;4.352;2023-03-11T05:11:12;10.50;62.50
22469;DHT22;11401;50.792;4.352;2023-03-11T05:13:41;10.50;62.00
22469;DHT22;11401;50.792;4.352;2023-03-11T05:16:09;10.50;62.10
22469;DHT22;11401;50.792;4.352;2023-03-11T05:18:37;10.40;62.20
22469;DHT22;11401;50.792;4.352;2023-03-11T05:21:05;10.40;62.10
22469;DHT22;11401;50.792;4.352;2023-03-11T05:23:34;10.40;62.00
22469;DHT22;11401;50.792;4.352;2023-03-11T05:26:02;10.30;62.40
22469;DHT22;11401;50.792;4.352;2023-03-11T05:28:30;10.40;62.00
22469;DHT22;11401;50.792;4.352;2023-03-11T05:30:57;10.30;62.20
22469;DHT22;11401;50.792;4.352;2023-03-11T05:33:25;10.30;61.90
22469;DHT22;11401;50.792;4.352;2023-03-11T05:35:52;10.30;62.40
22469;DHT22;11401;50.792;4.352;2023-03-11T05:38:20;10.30;62.10
22469;DHT22;11401;50.792;4.352;2023-03-11T05:40:47;10.30;62.50
22469;DHT22;11401;50.792;4.352;2023-03-11T05:43:14;10.40;61.90
22469;DHT22;11401;50.792;4.352;2023-03-11T05:45:45;10.30;61.80
22469;DHT22;11401;50.792;4.352;2023-03-11T05:48:12;10.30;61.80
22469;DHT22;11401;50.792;4.352;2023-03-11T05:50:39;10.30;61.90
22469;DHT22;11401;50.792;4.352;2023-03-11T05:53:06;10.30;61.80
22469;DHT22;11401;50.792;4.352;2023-03-11T05:55:34;10.30;61.70
22469;DHT22;11401;50.792;4.352;2023-03-11T05:58:00;10.30;61.50
22469;DHT22;11401;50.792;4.352;2023-03-11T06:00:28;10.20;61.70
22469;DHT22;11401;50.792;4.352;2023-03-11T06:02:57;10.30;61.60
22469;DHT22;11401;50.792;4.352;2023-03-11T06:05:25;10.20;61.60
22469;DHT22;11401;50.792;4.352;2023-03-11T06:07:53;10.20;62.10
22469;DHT22;11401;50.792;4.352;2023-03-11T06:10:21;10.30;62.20
22469;DHT22;11401;50.792;4.352;2023-03-11T06:12:49;10.30;61.80
22469;DHT22;11401;50.792;4.352;2023-03-11T06:15:25;10.30;61.60
22469;DHT22;11401;50.792;4.352;2023-03-11T06:17:53;10.30;62.10
22469;DHT22;11401;50.792;4.352;2023-03-11T06:20:20;10.30;62.30
22469;DHT22;11401;50.792;4.352;2023-03-11T06:22:48;10.30;62.20
22469;DHT22;11401;50.792;4.352;2023-03-11T06:25:15;10.30;62.00
22469;DHT22;11401;50.792;4.352;2023-03-11T06:27:48;10.30;61.80
22469;DHT22;11401;50.792;4.352;2023-03-11T06:30:18;10.30;61.70
22469;DHT22;11401;50.792;4.352;2023-03-11T06:32:54;10.30;61.80
22469;DHT22;11401;50.792;4.352;2023-03-11T06:35:21;10.30;61.90
22469;DHT22;11401;50.792;4.352;2023-03-11T06:37:48;10.20;61.90
22469;DHT22;11401;50.792;4.352;2023-03-11T06:40:15;10.30;62.20
22469;DHT22;11401;50.792;4.352;2023-03-11T06:42:47;10.30;61.80
22469;DHT22;11401;50.792;4.352;2023-03-11T06:45:14;10.30;61.50
22469;DHT22;11401;50.792;4.352;2023-03-11T06:47:43;10.30;61.70
22469;DHT22;11401;50.792;4.352;2023-03-11T06:50:10;10.30;61.10
22469;DHT22;11401;50.792;4.352;2023-03-11T06:52:38;10.30;61.40
22469;DHT22;11401;50.792;4.352;2023-03-11T06:55:07;10.30;61.50
22469;DHT22;11401;50.792;4.352;2023-03-11T06:57:35;10.30;61.10
22469;DHT22;11401;50.792;4.352;2023-03-11T07:00:05;10.30;61.50
22469;DHT22;11401;50.792;4.352;2023-03-11T07:02:34;10.20;60.50
22469;DHT22;11401;50.792;4.352;2023-03-11T07:05:02;10.30;61.60
22469;DHT22;11401;50.792;4.352;2023-03-11T07:07:30;10.30;61.40
22469;DHT22;11401;50.792;4.352;2023-03-11T07:09:59;10.30;61.50
22469;DHT22;11401;50.792;4.352;2023-03-11T07:12:26;10.30;61.60
22469;DHT22;11401;50.792;4.352;2023-03-11T07:14:57;10.30;61.30
22469;DHT22;11401;50.792;4.352;2023-03-11T07:17:26;10.30;61.40
22469;DHT22;11401;50.792;4.352;2023-03-11T07:19:53;10.30;61.30
22469;DHT22;11401;50.792;4.352;2023-03-11T07:22:20;10.40;61.80
22469;DHT22;11401;50.792;4.352;2023-03-11T07:24:47;10.40;61.90
22469;DHT22;11401;50.792;4.352;2023-03-11T07:27:15;10.40;61.60
22469;DHT22;11401;50.792;4.352;2023-03-11T07:29:43;10.40;61.30
22469;DHT22;11401;50.792;4.352;2023-03-11T07:32:10;10.50;61.20
22469;DHT22;11401;50.792;4.352;2023-03-11T07:34:37;10.50;61.40
22469;DHT22;11401;50.792;4.352;2023-03-11T07:37:04;10.50;61.50
22469;DHT22;11401;50.792;4.352;2023-03-11T07:39:31;10.50;61.80
22469;DHT22;11401;50.792;4.352;2023-03-11T07:41:58;10.50;61.70
22469;DHT22;11401;50.792;4.352;2023-03-11T07:44:33;10.50;61.70
22469;DHT22;11401;50.792;4.352;2023-03-11T07:47:06;10.60;61.40
22469;DHT22;11401;50.792;4.352;2023-03-11T07:49:35;10.50;61.00
22469;DHT22;11401;50.792;4.352;2023-03-11T07:52:02;10.60;61.60
22469;DHT22;11401;50.792;4.352;2023-03-11T07:54:29;10.60;61.00
22469;DHT22;11401;50.792;4.352;2023-03-11T07:56:56;10.70;61.60
22469;DHT22;11401;50.792;4.352;2023-03-11T07:59:23;10.70;61.20
22469;DHT22;11401;50.792;4.352;2023-03-11T08:01:51;10.80;61.20
22469;DHT22;11401;50.792;4.352;2023-03-11T08:04:18;10.80;60.90
22469;DHT22;11401;50.792;4.352;2023-03-11T08:06:46;10.80;61.00
22469;DHT22;11401;50.792;4.352;2023-03-11T08:09:13;10.90;61.10
22469;DHT22;11401;50.792;4.352;2023-03-11T08:11:41;10.80;60.90
22469;DHT22;11401;50.792;4.352;2023-03-11T08:14:09;10.80;60.50
22469;DHT22;11401;50.792;4.352;2023-03-11T08:16:38;11.00;61.10
22469;DHT22;11401;50.792;4.352;2023-03-11T08:19:06;10.90;60.80
22469;DHT22;11401;50.792;4.352;2023-03-11T08:21:33;11.00;60.60
22469;DHT22;11401;50.792;4.352;2023-03-11T08:24:01;11.00;60.30
22469;DHT22;11401;50.792;4.352;2023-03-11T08:26:31;11.00;60.60
22469;DHT22;11401;50.792;4.352;2023-03-11T08:28:59;11.10;60.50
22469;DHT22;11401;50.792;4.352;2023-03-11T08:31:28;11.10;61.00
22469;DHT22;11401;50.792;4.352;2023-03-11T08:34:01;11.20;60.80
22469;DHT22;11401;50.792;4.352;2023-03-11T08:36:29;11.30;60.20
22469;DHT22;11401;50.792;4.352;2023-03-11T08:38:57;11.40;60.00
22469;DHT22;11401;50.792;4.352;2023-03-11T08:41:25;11.40;59.80
22469;DHT22;11401;50.792;4.352;2023-03-11T08:43:52;11.40;60.10
22469;DHT22;11401;50.792;4.352;2023-03-11T08:48:56;11.50;59.80
22469;DHT22;11401;50.792;4.352;2023-03-11T08:51:28;11.60;59.60
22469;DHT22;11401;50.792;4.352;2023-03-11T08:53:55;11.70;59.30
22469;DHT22;11401;50.792;4.352;2023-03-11T08:56:22;11.80;59.60
22469;DHT22;11401;50.792;4.352;2023-03-11T08:58:49;11.90;59.30
22469;DHT22;11401;50.792;4.352;2023-03-11T09:01:17;12.10;59.90
22469;DHT22;11401;50.792;4.352;2023-03-11T09:03:46;12.10;58.50
22469;DHT22;11401;50.792;4.352;2023-03-11T09:06:14;12.10;58.30
22469;DHT22;11401;50.792;4.352;2023-03-11T09:08:42;12.10;58.30
22469;DHT22;11401;50.792;4.352;2023-03-11T09:11:10;12.20;58.60
22469;DHT22;11401;50.792;4.352;2023-03-11T09:13:40;12.30;58.70
22469;DHT22;11401;50.792;4.352;2023-03-11T09:16:15;12.40;57.90
22469;DHT22;11401;50.792;4.352;2023-03-11T09:18:44;12.40;57.90
22469;DHT22;11401;50.792;4.352;2023-03-11T09:21:12;12.50;57.80
22469;DHT22;11401;50.792;4.352;2023-03-11T09:23:40;12.50;57.50
22469;DHT22;11401;50.792;4.352;2023-03-11T09:26:10;12.50;56.40
22469;DHT22;11401;50.792;4.352;2023-03-11T09:28:37;12.60;56.60
22469;DHT22;11401;50.792;4.352;2023-03-11T09:31:04;12.70;56.30
22469;DHT22;11401;50.792;4.352;2023-03-11T09:33:39;12.70;55.70
22469;DHT22;11401;50.792;4.352;2023-03-11T09:36:08;12.80;55.40
22469;DHT22;11401;50.792;4.352;2023-03-11T09:38:38;12.90;54.90
22469;DHT22;11401;50.792;4.352;2023-03-11T09:52:12;13.10;51.70
22469;DHT22;11401;50.792;4.352;2023-03-11T09:54:46;13.10;51.30
22469;DHT22;11401;50.792;4.352;2023-03-11T09:57:24;13.10;53.10
22469;DHT22;11401;50.792;4.352;2023-03-11T09:59:54;13.10;52.90
22469;DHT22;11401;50.792;4.352;2023-03-11T10:02:23;13.20;52.70
22469;DHT22;11401;50.792;4.352;2023-03-11T10:04:56;13.30;52.70
22469;DHT22;11401;50.792;4.352;2023-03-11T10:07:32;13.30;53.20
22469;DHT22;11401;50.792;4.352;2023-03-11T10:10:01;13.30;52.30
22469;DHT22;11401;50.792;4.352;2023-03-11T10:24:15;12.90;52.50
22469;DHT22;11401;50.792;4.352;2023-03-11T10:26:49;13.10;53.80
22469;DHT22;11401;50.792;4.352;2023-03-11T10:29:27;13.30;52.60
22469;DHT22;11401;50.792;4.352;2023-03-11T10:32:19;13.00;48.20
22469;DHT22;11401;50.792;4.352;2023-03-11T10:34:52;12.50;47.90
22469;DHT22;11401;50.792;4.352;2023-03-11T10:37:27;12.20;50.10
22469;DHT22;11401;50.792;4.352;2023-03-11T10:40:32;12.40;51.10
22469;DHT22;11401;50.792;4.352;2023-03-11T10:43:13;12.10;50.70
22469;DHT22;11401;50.792;4.352;2023-03-11T10:45:43;12.10;53.10
22469;DHT22;11401;50.792;4.352;2023-03-11T10:48:16;12.20;51.90
22469;DHT22;11401;50.792;4.352;2023-03-11T10:51:13;12.10;49.40
22469;DHT22;11401;50.792;4.352;2023-03-11T10:53:53;12.20;52.50
22469;DHT22;11401;50.792;4.352;2023-03-11T10:59:00;12.00;48.10
22469;DHT22;11401;50.792;4.352;2023-03-11T11:01:29;11.90;51.30
22469;DHT22;11401;50.792;4.352;2023-03-11T11:03:58;12.10;54.50
22469;DHT22;11401;50.792;4.352;2023-03-11T11:06:32;12.50;50.90
22469;DHT22;11401;50.792;4.352;2023-03-11T11:09:26;12.70;50.80
22469;DHT22;11401;50.792;4.352;2023-03-11T11:14:51;13.20;51.40
22469;DHT22;11401;50.792;4.352;2023-03-11T11:17:29;12.80;47.30
22469;DHT22;11401;50.792;4.352;2023-03-11T11:19:57;12.50;47.00
22469;DHT22;11401;50.792;4.352;2023-03-11T11:22:25;12.50;50.10
22469;DHT22;11401;50.792;4.352;2023-03-11T11:24:55;12.50;48.30
22469;DHT22;11401;50.792;4.352;2023-03-11T11:27:26;12.40;49.80
22469;DHT22;11401;50.792;4.352;2023-03-11T11:32:33;12.60;51.20
22469;DHT22;11401;50.792;4.352;2023-03-11T11:37:34;12.80;50.70
22469;DHT22;11401;50.792;4.352;2023-03-11T11:40:24;12.80;48.60
22469;DHT22;11401;50.792;4.352;2023-03-11T11:43:02;12.90;48.50
22469;DHT22;11401;50.792;4.352;2023-03-11T11:48:55;12.70;44.20
22469;DHT22;11401;50.792;4.352;2023-03-11T11:51:11;12.30;47.80
22469;DHT22;11401;50.792;4.352;2023-03-11T11:54:02;12.60;47.00
22469;DHT22;11401;50.792;4.352;2023-03-11T11:56:33;12.60;46.70
22469;DHT22;11401;50.792;4.352;2023-03-11T11:59:00;13.00;52.20
22469;DHT22;11401;50.792;4.352;2023-03-11T12:14:42;13.60;48.30
22469;DHT22;11401;50.792;4.352;2023-03-11T12:17:12;13.60;48.10
22469;DHT22;11401;50.792;4.352;2023-03-11T12:20:02;13.60;48.10
22469;DHT22;11401;50.792;4.352;2023-03-11T12:28:44;13.80;47.70
22469;DHT22;11401;50.792;4.352;2023-03-11T12:31:12;13.90;47.50
22469;DHT22;11401;50.792;4.352;2023-03-11T12:33:48;14.00;48.30
22469;DHT22;11401;50.792;4.352;2023-03-11T12:39:00;14.20;45.80
22469;DHT22;11401;50.792;4.352;2023-03-11T12:41:37;14.20;46.30
22469;DHT22;11401;50.792;4.352;2023-03-11T12:44:27;14.40;47.20
22469;DHT22;11401;50.792;4.352;2023-03-11T12:49:32;14.30;46.00
22469;DHT22;11401;50.792;4.352;2023-03-11T12:54:48;14.50;47.00
22469;DHT22;11401;50.792;4.352;2023-03-11T13:08:13;14.40;44.80
22469;DHT22;11401;50.792;4.352;2023-03-11T13:10:45;14.30;45.70
22469;DHT22;11401;50.792;4.352;2023-03-11T13:13:34;14.40;46.70
22469;DHT22;11401;50.792;4.352;2023-03-11T13:18:45;14.50;45.50
22469;DHT22;11401;50.792;4.352;2023-03-11T13:21:37;14.60;46.40
22469;DHT22;11401;50.792;4.352;2023-03-11T13:30:15;14.60;44.30
22469;DHT22;11401;50.792;4.352;2023-03-11T13:32:29;14.20;41.40
22469;DHT22;11401;50.792;4.352;2023-03-11T13:40:39;14.00;46.40
22469;DHT22;11401;50.792;4.352;2023-03-11T13:43:14;14.00;45.80
22469;DHT22;11401;50.792;4.352;2023-03-11T13:46:06;14.00;46.10
22469;DHT22;11401;50.792;4.352;2023-03-11T13:48:43;14.20;46.00
22469;DHT22;11401;50.792;4.352;2023-03-11T13:56:47;14.30;46.20
22469;DHT22;11401;50.792;4.352;2023-03-11T13:59:32;14.30;44.30
22469;DHT22;11401;50.792;4.352;2023-03-11T14:02:17;14.20;45.40
22469;DHT22;11401;50.792;4.352;2023-03-11T14:05:02;14.10;43.40
22469;DHT22;11401;50.792;4.352;2023-03-11T14:07:33;14.00;45.30
22469;DHT22;11401;50.792;4.352;2023-03-11T14:10:21;14.00;45.10
22469;DHT22;11401;50.792;4.352;2023-03-11T14:12:48;14.10;45.90
22469;DHT22;11401;50.792;4.352;2023-03-11T14:15:24;14.10;45.50
22469;DHT22;11401;50.792;4.352;2023-03-11T14:17:53;14.10;44.60
22469;DHT22;11401;50.792;4.352;2023-03-11T14:20:40;14.00;45.20
22469;DHT22;11401;50.792;4.352;2023-03-11T14:23:17;13.90;44.00
22469;DHT22;11401;50.792;4.352;2023-03-11T14:25:45;13.80;45.30
22469;DHT22;11401;50.792;4.352;2023-03-11T14:28:19;13.90;46.60
22469;DHT22;11401;50.792;4.352;2023-03-11T14:31:00;14.00;46.90
22469;DHT22;11401;50.792;4.352;2023-03-11T14:33:28;14.00;45.50
22469;DHT22;11401;50.792;4.352;2023-03-11T14:35:57;14.10;45.40
22469;DHT22;11401;50.792;4.352;2023-03-11T14:38:28;14.10;46.40
22469;DHT22;11401;50.792;4.352;2023-03-11T14:40:57;14.10;45.90
22469;DHT22;11401;50.792;4.352;2023-03-11T14:43:32;14.20;45.70
22469;DHT22;11401;50.792;4.352;2023-03-11T14:46:01;14.10;45.30
22469;DHT22;11401;50.792;4.352;2023-03-11T14:48:38;14.20;45.40
22469;DHT22;11401;50.792;4.352;2023-03-11T14:51:13;14.30;45.30
22469;DHT22;11401;50.792;4.352;2023-03-11T14:53:45;14.50;45.50
22469;DHT22;11401;50.792;4.352;2023-03-11T14:56:21;14.40;45.00
22469;DHT22;11401;50.792;4.352;2023-03-11T14:59:12;14.40;44.60
22469;DHT22;11401;50.792;4.352;2023-03-11T15:01:42;14.40;44.90
22469;DHT22;11401;50.792;4.352;2023-03-11T15:06:55;14.30;44.70
22469;DHT22;11401;50.792;4.352;2023-03-11T15:09:23;14.20;44.80
22469;DHT22;11401;50.792;4.352;2023-03-11T15:16:54;14.00;45.30
22469;DHT22;11401;50.792;4.352;2023-03-11T15:24:55;13.90;45.70
22469;DHT22;11401;50.792;4.352;2023-03-11T15:27:34;14.00;45.90
22469;DHT22;11401;50.792;4.352;2023-03-11T15:30:04;14.10;45.40
22469;DHT22;11401;50.792;4.352;2023-03-11T15:32:43;14.20;44.40
22469;DHT22;11401;50.792;4.352;2023-03-11T15:35:23;14.30;44.90
22469;DHT22;11401;50.792;4.352;2023-03-11T15:38:20;14.40;44.50
22469;DHT22;11401;50.792;4.352;2023-03-11T15:40:52;14.30;43.80
22469;DHT22;11401;50.792;4.352;2023-03-11T15:43:27;14.40;44.60
22469;DHT22;11401;50.792;4.352;2023-03-11T15:45:56;14.30;44.50
22469;DHT22;11401;50.792;4.352;2023-03-11T15:48:24;14.30;44.30
22469;DHT22;11401;50.792;4.352;2023-03-11T15:50:56;14.30;43.10
22469;DHT22;11401;50.792;4.352;2023-03-11T15:53:25;14.20;44.70
22469;DHT22;11401;50.792;4.352;2023-03-11T15:55:56;14.20;44.40
22469;DHT22;11401;50.792;4.352;2023-03-11T15:58:32;14.20;44.70
22469;DHT22;11401;50.792;4.352;2023-03-11T16:01:00;14.20;44.90
22469;DHT22;11401;50.792;4.352;2023-03-11T16:03:27;14.20;45.10
22469;DHT22;11401;50.792;4.352;2023-03-11T16:05:57;14.30;44.50
22469;DHT22;11401;50.792;4.352;2023-03-11T16:08:24;14.30;45.30
22469;DHT22;11401;50.792;4.352;2023-03-11T16:10:51;14.40;45.40
22469;DHT22;11401;50.792;4.352;2023-03-11T16:13:18;14.40;44.40
22469;DHT22;11401;50.792;4.352;2023-03-11T16:15:45;14.40;45.80
22469;DHT22;11401;50.792;4.352;2023-03-11T16:18:13;14.30;44.50
22469;DHT22;11401;50.792;4.352;2023-03-11T16:20:41;14.20;45.80
22469;DHT22;11401;50.792;4.352;2023-03-11T16:23:30;14.20;45.40
22469;DHT22;11401;50.792;4.352;2023-03-11T16:26:16;14.10;45.10
22469;DHT22;11401;50.792;4.352;2023-03-11T16:28:43;14.20;46.40
22469;DHT22;11401;50.792;4.352;2023-03-11T16:31:10;14.20;45.00
22469;DHT22;11401;50.792;4.352;2023-03-11T16:33:37;14.20;45.10
22469;DHT22;11401;50.792;4.352;2023-03-11T16:36:04;14.20;45.10
22469;DHT22;11401;50.792;4.352;2023-03-11T16:38:44;14.20;44.20
22469;DHT22;11401;50.792;4.352;2023-03-11T16:41:11;14.20;44.90
22469;DHT22;11401;50.792;4.352;2023-03-11T16:43:38;14.20;45.00
22469;DHT22;11401;50.792;4.352;2023-03-11T16:46:05;14.20;46.10
22469;DHT22;11401;50.792;4.352;2023-03-11T16:48:32;14.20;45.50
22469;DHT22;11401;50.792;4.352;2023-03-11T16:51:00;14.20;45.50
22469;DHT22;11401;50.792;4.352;2023-03-11T16:53:27;14.20;45.50
22469;DHT22;11401;50.792;4.352;2023-03-11T16:55:54;14.20;45.20
22469;DHT22;11401;50.792;4.352;2023-03-11T16:58:22;14.20;45.20
22469;DHT22;11401;50.792;4.352;2023-03-11T17:00:49;14.20;44.50
22469;DHT22;11401;50.792;4.352;2023-03-11T17:03:17;14.10;44.10
22469;DHT22;11401;50.792;4.352;2023-03-11T17:05:47;14.10;44.30
22469;DHT22;11401;50.792;4.352;2023-03-11T17:08:14;14.00;44.30
22469;DHT22;11401;50.792;4.352;2023-03-11T17:10:44;14.00;45.10
22469;DHT22;11401;50.792;4.352;2023-03-11T17:13:12;14.00;45.40
22469;DHT22;11401;50.792;4.352;2023-03-11T17:15:41;14.00;45.00
22469;DHT22;11401;50.792;4.352;2023-03-11T17:18:11;14.00;45.30
22469;DHT22;11401;50.792;4.352;2023-03-11T17:20:39;13.90;45.40
22469;DHT22;11401;50.792;4.352;2023-03-11T17:23:09;14.00;45.60
22469;DHT22;11401;50.792;4.352;2023-03-11T17:25:39;14.00;44.90
22469;DHT22;11401;50.792;4.352;2023-03-11T17:28:07;14.00;45.80
22469;DHT22;11401;50.792;4.352;2023-03-11T17:30:34;14.00;46.10
22469;DHT22;11401;50.792;4.352;2023-03-11T17:33:03;14.00;46.00
22469;DHT22;11401;50.792;4.352;2023-03-11T17:35:30;14.00;46.10
22469;DHT22;11401;50.792;4.352;2023-03-11T17:37:57;13.90;46.20
22469;DHT22;11401;50.792;4.352;2023-03-11T17:40:25;13.90;46.20
22469;DHT22;11401;50.792;4.352;2023-03-11T17:42:52;13.90;46.60
22469;DHT22;11401;50.792;4.352;2023-03-11T17:45:19;13.90;46.90